Time;durP1;ratioP1;P1;durP2;ratioP2;P2;SDS_P1;SDS_P2;PMS_P1;PMS_P2;Temp;Humidity;BMP_temperature;BMP_pressure;BME280_temperature;BME280_humidity;BME280_pressure;Samples;Min_cycle;Max_cycle;Signal;HPM_P1;HPM_P2
2023/05/06 00:00:31;;;;;;;8.30;6.75;;;12.80;99.90;;;;;;5090320;28;20044;-76
2023/05/06 00:02:58;;;;;;;8.27;6.85;;;12.80;99.90;;;;;;5090327;28;20040;-76
2023/05/06 00:05:24;;;;;;;9.27;6.65;;;12.80;99.90;;;;;;5090655;28;20050;-76
2023/05/06 00:07:50;;;;;;;8.10;6.97;;;12.80;99.90;;;;;;5054143;28;20043;-76
2023/05/06 00:10:16;;;;;;;9.60;7.25;;;12.80;99.90;;;;;;5070081;28;20037;-76
2023/05/06 00:12:41;;;;;;;7.28;6.47;;;12.80;99.90;;;;;;5087554;28;20038;-76
2023/05/06 00:15:07;;;;;;;10.65;6.93;;;12.70;99.90;;;;;;5090416;28;20090;-75
2023/05/06 00:17:33;;;;;;;9.52;6.75;;;12.70;99.90;;;;;;5089978;28;20036;-76
2023/05/06 00:19:58;;;;;;;8.65;6.53;;;12.60;99.90;;;;;;5089740;28;20415;-76
2023/05/06 00:22:24;;;;;;;10.00;7.53;;;12.50;99.90;;;;;;5090451;28;20502;-76
2023/05/06 00:24:49;;;;;;;8.25;6.90;;;12.50;99.90;;;;;;5090361;28;20039;-77
2023/05/06 00:27:15;;;;;;;9.23;7.03;;;12.40;99.90;;;;;;5090034;28;20048;-77
2023/05/06 00:29:40;;;;;;;12.10;7.07;;;12.40;99.90;;;;;;5089872;28;20419;-76
2023/05/06 00:32:06;;;;;;;10.23;7.53;;;12.30;99.90;;;;;;5090426;28;20454;-77
2023/05/06 00:34:31;;;;;;;9.18;7.82;;;12.30;99.90;;;;;;5058995;28;20040;-77
2023/05/06 00:36:57;;;;;;;8.70;7.55;;;12.20;99.90;;;;;;5089872;28;20051;-77
2023/05/06 00:39:23;;;;;;;10.00;7.88;;;12.10;99.90;;;;;;5089786;28;20059;-76
2023/05/06 00:41:49;;;;;;;8.07;7.28;;;12.10;99.90;;;;;;5090117;28;20036;-77
2023/05/06 00:44:15;;;;;;;10.70;7.28;;;12.10;99.90;;;;;;5089945;28;20088;-77
2023/05/06 00:46:42;;;;;;;8.70;7.30;;;12.00;99.90;;;;;;5089723;28;20032;-77
2023/05/06 00:49:08;;;;;;;8.18;6.50;;;12.00;99.90;;;;;;5089973;28;20407;-78
2023/05/06 00:51:34;;;;;;;7.25;6.40;;;12.00;99.90;;;;;;5089845;28;20040;-78
2023/05/06 00:54:00;;;;;;;8.13;6.88;;;12.00;99.90;;;;;;5090000;28;20403;-77
2023/05/06 00:56:26;;;;;;;10.40;6.82;;;12.00;99.90;;;;;;5099495;28;20075;-78
2023/05/06 00:58:53;;;;;;;7.38;6.10;;;12.00;99.90;;;;;;5092879;28;20562;-78
2023/05/06 01:01:21;;;;;;;7.15;6.45;;;11.90;99.90;;;;;;5077641;28;20400;-79
2023/05/06 01:03:47;;;;;;;8.40;7.00;;;12.00;99.90;;;;;;5089939;28;20044;-78
2023/05/06 01:06:28;;;;;;;8.73;7.00;;;12.00;99.90;;;;;;5089970;28;20128;-78
2023/05/06 01:09:11;;;;;;;8.75;6.88;;;12.00;99.90;;;;;;5089811;28;20047;-79
2023/05/06 01:11:46;;;;;;;9.15;7.68;;;12.00;99.90;;;;;;5090297;28;20055;-79
2023/05/06 01:14:27;;;;;;;10.13;7.72;;;12.10;99.90;;;;;;5090150;28;20045;-79
2023/05/06 01:16:56;;;;;;;9.95;8.60;;;12.10;99.90;;;;;;5090257;28;20530;-80
2023/05/06 01:19:40;;;;;;;11.02;8.35;;;12.10;99.90;;;;;;5073542;28;20044;-80
2023/05/06 01:22:06;;;;;;;9.88;8.02;;;12.10;99.90;;;;;;5074097;28;20048;-80
2023/05/06 01:24:35;;;;;;;9.75;7.70;;;12.10;99.90;;;;;;5090243;28;20133;-80
2023/05/06 01:27:01;;;;;;;10.95;8.38;;;12.20;99.90;;;;;;5090353;28;20040;-80
2023/05/06 01:29:27;;;;;;;13.60;8.48;;;12.10;99.90;;;;;;5090245;28;20047;-79
2023/05/06 01:32:00;;;;;;;9.57;8.00;;;12.20;99.90;;;;;;5091010;28;20040;-79
2023/05/06 01:34:37;;;;;;;9.17;8.07;;;12.20;99.90;;;;;;5095113;28;20109;-80
2023/05/06 01:37:13;;;;;;;9.68;7.93;;;12.20;99.90;;;;;;5094713;28;20051;-80
2023/05/06 01:39:41;;;;;;;9.60;8.50;;;12.20;99.90;;;;;;5094676;28;20040;-80
2023/05/06 01:42:08;;;;;;;10.90;8.05;;;12.20;99.90;;;;;;5095177;28;20551;-81
2023/05/06 01:44:35;;;;;;;9.80;7.95;;;12.10;99.90;;;;;;5094690;28;20040;-81
2023/05/06 01:47:01;;;;;;;12.18;8.10;;;12.10;99.90;;;;;;5094488;28;20059;-80
2023/05/06 01:49:28;;;;;;;9.43;8.05;;;12.10;99.90;;;;;;5077832;28;20040;-80
2023/05/06 01:51:55;;;;;;;10.82;7.45;;;12.10;99.90;;;;;;5094070;28;20051;-80
2023/05/06 01:54:20;;;;;;;9.32;8.15;;;12.00;99.90;;;;;;5094350;28;20048;-80
2023/05/06 01:56:46;;;;;;;8.05;7.00;;;12.00;99.90;;;;;;5106407;28;20036;-80
2023/05/06 01:59:11;;;;;;;8.55;7.65;;;11.90;99.90;;;;;;5095938;28;20039;-80
2023/05/06 02:01:37;;;;;;;8.88;7.78;;;11.90;99.90;;;;;;5094587;28;20042;-80
2023/05/06 02:04:02;;;;;;;11.25;7.95;;;11.90;99.90;;;;;;5094282;28;20475;-80
2023/05/06 02:06:28;;;;;;;9.95;7.75;;;11.80;99.90;;;;;;5069194;28;20036;-80
2023/05/06 02:08:54;;;;;;;9.27;7.72;;;11.80;99.90;;;;;;5087740;28;20067;-80
2023/05/06 02:11:19;;;;;;;8.35;7.00;;;11.70;99.90;;;;;;5093955;28;20063;-80
2023/05/06 02:13:45;;;;;;;10.15;8.52;;;11.70;99.90;;;;;;5094111;28;20078;-80
2023/05/06 02:16:10;;;;;;;9.80;8.55;;;11.70;99.90;;;;;;5093484;28;20071;-80
2023/05/06 02:18:36;;;;;;;9.73;7.57;;;11.60;99.90;;;;;;5076541;28;20036;-81
2023/05/06 02:21:02;;;;;;;10.75;8.20;;;11.60;99.90;;;;;;5093343;28;20032;-81
2023/05/06 02:23:28;;;;;;;9.05;6.90;;;11.50;99.90;;;;;;5093762;28;20078;-80
2023/05/06 02:25:53;;;;;;;10.35;8.50;;;11.50;99.90;;;;;;5093193;28;20101;-81
2023/05/06 02:28:19;;;;;;;9.30;8.25;;;11.40;99.90;;;;;;5076516;28;20391;-80
2023/05/06 02:30:45;;;;;;;12.07;8.48;;;11.40;99.90;;;;;;5093512;28;20067;-81
2023/05/06 02:33:10;;;;;;;10.50;8.52;;;11.40;99.90;;;;;;5093495;28;20506;-81
2023/05/06 02:35:36;;;;;;;9.63;7.68;;;11.40;99.90;;;;;;5093549;28;20035;-81
2023/05/06 02:38:01;;;;;;;10.13;8.50;;;11.40;99.90;;;;;;5093200;28;20047;-81
2023/05/06 02:40:27;;;;;;;11.13;9.07;;;11.40;99.90;;;;;;5093294;28;20161;-80
2023/05/06 02:42:52;;;;;;;10.63;8.95;;;11.40;99.90;;;;;;5092928;28;20136;-80
2023/05/06 02:45:18;;;;;;;9.40;8.40;;;11.40;99.90;;;;;;5093162;28;20380;-81
2023/05/06 02:47:43;;;;;;;10.32;8.63;;;11.40;99.90;;;;;;5093183;28;20036;-80
2023/05/06 02:50:09;;;;;;;12.05;8.60;;;11.40;99.90;;;;;;5075880;28;20385;-80
2023/05/06 02:52:34;;;;;;;9.90;8.15;;;11.40;99.90;;;;;;5093310;28;20051;-81
2023/05/06 02:55:01;;;;;;;9.18;8.15;;;11.40;99.90;;;;;;5093451;28;20062;-81
2023/05/06 02:57:26;;;;;;;10.40;8.00;;;11.40;99.90;;;;;;5107509;28;20086;-80
2023/05/06 02:59:52;;;;;;;11.23;8.25;;;11.30;99.90;;;;;;5092989;28;20047;-81
2023/05/06 03:02:17;;;;;;;11.80;8.35;;;11.30;99.90;;;;;;5076266;28;20040;-81
2023/05/06 03:04:43;;;;;;;9.43;8.00;;;11.30;99.90;;;;;;5092853;28;20467;-81
2023/05/06 03:07:09;;;;;;;12.57;8.75;;;11.30;99.90;;;;;;5092979;28;20044;-80
2023/05/06 03:09:34;;;;;;;13.63;11.15;;;11.30;99.90;;;;;;5092689;28;20058;-80
2023/05/06 03:12:01;;;;;;;12.27;9.50;;;11.20;99.90;;;;;;5092615;28;20040;-80
2023/05/06 03:14:26;;;;;;;11.38;9.15;;;11.20;99.90;;;;;;5092569;28;20125;-82
2023/05/06 03:16:52;;;;;;;11.68;9.65;;;11.20;99.90;;;;;;5091890;28;20071;-82
2023/05/06 03:19:17;;;;;;;37.50;9.80;;;11.10;99.90;;;;;;5092498;28;20119;-81
2023/05/06 03:21:43;;;;;;;10.30;8.85;;;11.00;99.90;;;;;;5092505;28;20085;-81
2023/05/06 03:24:08;;;;;;;10.85;8.43;;;11.10;99.90;;;;;;5092167;28;20036;-82
2023/05/06 03:26:34;;;;;;;10.50;8.10;;;10.90;99.90;;;;;;5092283;28;20515;-81
2023/05/06 03:29:00;;;;;;;6.00;4.80;;;10.80;99.90;;;;;;5092448;28;20097;-82
2023/05/06 03:31:25;;;;;;;7.03;5.10;;;10.70;99.90;;;;;;5092170;28;20039;-82
2023/05/06 03:33:51;;;;;;;19.48;3.75;;;10.60;99.90;;;;;;5092259;28;20044;-82
2023/05/06 03:36:16;;;;;;;13.95;2.75;;;10.50;99.90;;;;;;5092129;28;20036;-82
2023/05/06 03:38:42;;;;;;;59.90;3.60;;;10.40;99.90;;;;;;5075324;28;20132;-81
2023/05/06 03:41:08;;;;;;;37.80;5.18;;;10.40;99.90;;;;;;5092088;28;20065;-81
2023/05/06 03:43:33;;;;;;;50.03;4.72;;;10.30;99.90;;;;;;5091741;28;20492;-83
2023/05/06 03:45:59;;;;;;;48.35;4.80;;;10.30;99.90;;;;;;5091764;28;20044;-82
2023/05/06 03:48:25;;;;;;;34.50;3.88;;;10.30;99.90;;;;;;5091723;28;20040;-82
2023/05/06 03:50:50;;;;;;;12.50;2.80;;;10.30;99.90;;;;;;5092317;28;20040;-83
2023/05/06 03:53:16;;;;;;;16.23;4.25;;;10.20;99.90;;;;;;5092275;28;20043;-82
2023/05/06 03:55:42;;;;;;;62.08;4.82;;;10.20;99.90;;;;;;5095290;28;20039;-82
2023/05/06 03:58:07;;;;;;;33.92;4.70;;;10.20;99.90;;;;;;5086001;28;20044;-81
2023/05/06 04:00:33;;;;;;;28.40;4.45;;;10.20;99.90;;;;;;5091945;28;20507;-82
2023/05/06 04:02:58;;;;;;;7.10;3.83;;;10.20;99.90;;;;;;5091755;28;20047;-83
2023/05/06 04:05:24;;;;;;;3.90;3.30;;;10.10;99.90;;;;;;5109441;28;20064;-82
2023/05/06 04:07:49;;;;;;;4.97;3.72;;;10.10;99.90;;;;;;5091891;28;20047;-82
2023/05/06 04:10:15;;;;;;;4.50;3.40;;;10.10;99.90;;;;;;5091587;28;20073;-83
2023/05/06 04:12:41;;;;;;;6.40;5.50;;;10.30;99.90;;;;;;5091675;28;20135;-82
2023/05/06 04:15:07;;;;;;;7.72;6.40;;;10.10;99.90;;;;;;5091571;28;20044;-82
2023/05/06 04:17:32;;;;;;;7.65;5.70;;;10.20;99.90;;;;;;5091097;28;20036;-83
2023/05/06 04:19:57;;;;;;;10.40;6.22;;;10.20;99.90;;;;;;5091317;28;20085;-82
2023/05/06 04:22:23;;;;;;;9.57;6.85;;;10.20;99.90;;;;;;5091471;28;20040;-82
2023/05/06 04:24:49;;;;;;;8.45;5.38;;;10.30;99.90;;;;;;5092259;28;20123;-83
2023/05/06 04:27:14;;;;;;;8.98;6.90;;;10.20;99.90;;;;;;5091966;28;20032;-82
2023/05/06 04:29:40;;;;;;;7.63;6.18;;;10.30;99.90;;;;;;5091380;28;20557;-82
2023/05/06 04:32:06;;;;;;;6.82;5.80;;;10.40;99.90;;;;;;5091196;28;20058;-83
2023/05/06 04:34:35;;;;;;;8.13;7.15;;;10.40;99.90;;;;;;5091194;28;20503;-83
2023/05/06 04:37:00;;;;;;;11.40;8.48;;;10.40;99.90;;;;;;5092098;28;20403;-81
2023/05/06 04:39:26;;;;;;;9.63;7.30;;;10.40;99.90;;;;;;5091035;28;20040;-83
2023/05/06 04:41:51;;;;;;;10.20;7.78;;;10.60;99.90;;;;;;5091077;28;20063;-82
2023/05/06 04:44:18;;;;;;;10.90;8.85;;;10.70;99.90;;;;;;5090830;28;20047;-83
2023/05/06 04:46:44;;;;;;;10.75;9.05;;;10.70;99.90;;;;;;5090906;28;20043;-83
2023/05/06 04:49:10;;;;;;;14.65;9.23;;;10.80;99.90;;;;;;5090682;28;20416;-84
2023/05/06 04:51:35;;;;;;;11.80;9.27;;;10.90;99.90;;;;;;5090977;28;20039;-83
2023/05/06 04:54:01;;;;;;;11.07;9.32;;;10.90;99.90;;;;;;5090875;28;20554;-83
2023/05/06 04:56:26;;;;;;;11.38;8.85;;;11.00;99.90;;;;;;5079249;28;20168;-84
2023/05/06 04:58:52;;;;;;;12.65;10.27;;;11.10;99.90;;;;;;5099488;28;20094;-82
2023/05/06 05:01:18;;;;;;;15.82;10.10;;;11.10;99.90;;;;;;5090825;28;20407;-84
2023/05/06 05:03:44;;;;;;;11.70;9.27;;;11.20;99.90;;;;;;5091021;28;20137;-83
2023/05/06 05:06:12;;;;;;;12.82;9.52;;;11.30;99.90;;;;;;5090542;28;20560;-84
2023/05/06 05:08:38;;;;;;;8.18;6.85;;;11.40;99.90;;;;;;5094676;28;20508;-84
2023/05/06 05:11:05;;;;;;;7.38;5.68;;;11.40;99.90;;;;;;5095145;28;20097;-83
2023/05/06 05:13:31;;;;;;;7.90;6.75;;;11.50;99.90;;;;;;5094621;28;20044;-84
2023/05/06 05:15:56;;;;;;;7.22;6.18;;;11.50;99.90;;;;;;5094603;28;20084;-84
2023/05/06 05:18:22;;;;;;;11.13;9.32;;;11.60;99.90;;;;;;5094183;28;20194;-84
2023/05/06 05:20:47;;;;;;;12.07;9.80;;;11.60;99.90;;;;;;5078006;28;20123;-83
2023/05/06 05:23:13;;;;;;;13.70;10.20;;;11.70;99.90;;;;;;5095065;28;20039;-83
2023/05/06 05:25:39;;;;;;;14.70;10.10;;;11.70;99.90;;;;;;5094399;28;20042;-84
2023/05/06 05:28:04;;;;;;;13.40;10.48;;;11.70;99.90;;;;;;5094057;28;20040;-83
2023/05/06 05:30:30;;;;;;;14.35;10.45;;;11.80;99.90;;;;;;5094368;28;20410;-83
2023/05/06 05:32:55;;;;;;;15.23;11.30;;;11.80;99.90;;;;;;5063612;28;20036;-83
2023/05/06 05:35:21;;;;;;;15.05;11.20;;;11.70;99.90;;;;;;5094889;28;20036;-82
2023/05/06 05:37:46;;;;;;;14.20;11.13;;;11.80;99.90;;;;;;5077975;28;20475;-84
2023/05/06 05:40:12;;;;;;;13.38;10.40;;;11.80;99.90;;;;;;5094269;28;20518;-83
2023/05/06 05:42:39;;;;;;;14.27;11.07;;;11.80;99.90;;;;;;5094212;28;20032;-84
2023/05/06 05:45:05;;;;;;;15.02;11.18;;;11.80;99.90;;;;;;5094225;28;20040;-84
2023/05/06 05:47:31;;;;;;;14.32;10.70;;;11.80;99.90;;;;;;5093972;28;20036;-84
2023/05/06 05:49:56;;;;;;;15.20;11.50;;;11.80;99.90;;;;;;5096917;28;20040;-84
2023/05/06 05:52:22;;;;;;;19.30;12.43;;;11.80;99.90;;;;;;5093465;28;20043;-84
2023/05/06 05:54:48;;;;;;;16.27;12.48;;;11.80;99.90;;;;;;5093741;28;20040;-84
2023/05/06 05:57:14;;;;;;;17.00;12.30;;;11.80;99.90;;;;;;5107957;28;20050;-84
2023/05/06 05:59:39;;;;;;;16.67;12.48;;;11.80;99.90;;;;;;5093521;28;20036;-84
2023/05/06 06:02:05;;;;;;;15.23;11.77;;;11.80;99.90;;;;;;5093592;28;20503;-84
2023/05/06 06:04:30;;;;;;;17.17;13.05;;;11.80;99.90;;;;;;5093261;28;20032;-84
2023/05/06 06:06:56;;;;;;;16.42;11.90;;;11.80;99.90;;;;;;5092716;28;20040;-85
2023/05/06 06:09:22;;;;;;;16.25;12.93;;;11.80;99.90;;;;;;5075899;28;20522;-84
2023/05/06 06:11:48;;;;;;;16.63;12.50;;;11.80;99.90;;;;;;5092880;28;20040;-84
2023/05/06 06:14:13;;;;;;;20.55;13.48;;;11.80;99.90;;;;;;5075845;28;20507;-83
2023/05/06 06:16:39;;;;;;;18.58;12.98;;;11.80;99.90;;;;;;5075970;28;20040;-84
2023/05/06 06:19:05;;;;;;;16.55;12.70;;;11.80;99.90;;;;;;5092193;28;20411;-83
2023/05/06 06:21:31;;;;;;;18.08;13.68;;;11.90;99.90;;;;;;5092648;28;20514;-83
2023/05/06 06:23:56;;;;;;;16.23;12.52;;;11.90;99.90;;;;;;5093374;28;20032;-82
2023/05/06 06:26:22;;;;;;;17.27;13.30;;;11.90;99.90;;;;;;5092492;28;20158;-84
2023/05/06 06:28:47;;;;;;;17.65;13.02;;;12.00;99.90;;;;;;5092304;28;20055;-84
2023/05/06 06:31:13;;;;;;;17.92;12.68;;;11.90;99.90;;;;;;5092333;28;20032;-84
2023/05/06 06:33:38;;;;;;;18.13;13.50;;;12.00;99.90;;;;;;5092359;28;20574;-84
2023/05/06 06:36:04;;;;;;;17.17;12.55;;;12.00;99.90;;;;;;5092348;28;20063;-84
2023/05/06 06:38:30;;;;;;;17.05;12.88;;;12.00;99.90;;;;;;5075213;28;20062;-84
2023/05/06 06:40:56;;;;;;;19.25;13.30;;;12.00;99.90;;;;;;5075257;28;20068;-84
2023/05/06 06:43:22;;;;;;;20.17;13.82;;;12.00;99.90;;;;;;5092159;28;20085;-85
2023/05/06 06:45:48;;;;;;;18.02;13.38;;;12.00;99.90;;;;;;5075607;28;20395;-85
2023/05/06 06:48:15;;;;;;;20.23;14.02;;;12.00;99.90;;;;;;5091962;28;20044;-85
2023/05/06 06:50:41;;;;;;;19.75;14.00;;;12.00;99.90;;;;;;5104403;28;20036;-85
2023/05/06 06:53:06;;;;;;;19.98;13.93;;;12.00;99.90;;;;;;5075086;28;20043;-85
2023/05/06 06:55:32;;;;;;;19.13;13.93;;;12.00;99.90;;;;;;5093868;28;20124;-85
2023/05/06 06:57:57;;;;;;;18.10;12.98;;;12.00;99.90;;;;;;5104085;28;20047;-85
2023/05/06 07:00:23;;;;;;;17.67;13.35;;;12.10;99.90;;;;;;5074830;28;20044;-85
2023/05/06 07:02:48;;;;;;;19.60;14.82;;;12.10;99.90;;;;;;5069444;28;20500;-84
2023/05/06 07:05:14;;;;;;;17.20;12.52;;;12.20;99.90;;;;;;5083506;28;20071;-85
2023/05/06 07:07:40;;;;;;;18.05;13.27;;;12.30;99.90;;;;;;5091533;28;20519;-85
2023/05/06 07:10:06;;;;;;;21.88;14.30;;;12.30;99.90;;;;;;5091491;28;20044;-87
2023/05/06 07:12:31;;;;;;;18.05;13.20;;;12.40;99.90;;;;;;5091913;28;20047;-87
2023/05/06 07:14:57;;;;;;;18.10;13.80;;;12.50;99.90;;;;;;5067494;28;20186;-85
2023/05/06 07:17:22;;;;;;;19.15;13.68;;;12.50;99.90;;;;;;5085352;28;20043;-84
2023/05/06 07:19:48;;;;;;;19.10;14.20;;;12.60;99.90;;;;;;5091421;28;20084;-84
2023/05/06 07:22:14;;;;;;;19.85;15.07;;;12.60;99.90;;;;;;5091695;28;20503;-85
2023/05/06 07:24:39;;;;;;;18.02;13.70;;;12.60;99.90;;;;;;5075678;28;20086;-86
2023/05/06 07:27:05;;;;;;;20.42;14.43;;;12.70;99.90;;;;;;5078056;28;20472;-85
2023/05/06 07:29:30;;;;;;;18.88;14.10;;;12.70;99.90;;;;;;5074536;28;20040;-85
2023/05/06 07:31:56;;;;;;;18.40;13.77;;;12.80;99.90;;;;;;5100248;28;20032;-85
2023/05/06 07:34:22;;;;;;;19.77;13.93;;;12.90;99.90;;;;;;5097946;28;20525;-84
2023/05/06 07:36:47;;;;;;;19.63;13.85;;;13.00;99.90;;;;;;5091422;28;20058;-85
2023/05/06 07:39:13;;;;;;;18.27;13.35;;;13.10;99.90;;;;;;5079866;28;20062;-85
2023/05/06 07:41:39;;;;;;;19.13;14.50;;;13.20;99.90;;;;;;5055341;28;20092;-84
2023/05/06 07:44:05;;;;;;;19.50;13.43;;;13.30;99.90;;;;;;5091127;28;20067;-85
2023/05/06 07:46:31;;;;;;;23.38;14.82;;;13.40;99.90;;;;;;5095786;28;20073;-84
2023/05/06 07:48:56;;;;;;;19.90;14.65;;;13.50;99.90;;;;;;5099347;28;20039;-86
2023/05/06 07:51:22;;;;;;;20.75;14.60;;;13.80;99.90;;;;;;5081472;28;20054;-84
2023/05/06 07:53:47;;;;;;;20.77;15.35;;;14.00;99.90;;;;;;5085739;28;20036;-85
2023/05/06 07:56:13;;;;;;;20.83;14.48;;;14.20;99.90;;;;;;5090374;28;20031;-85
2023/05/06 07:58:38;;;;;;;18.98;13.93;;;14.20;99.90;;;;;;5080505;28;20061;-85
2023/05/06 08:01:05;;;;;;;15.63;12.65;;;14.40;99.90;;;;;;5090845;28;20032;-85
2023/05/06 08:03:31;;;;;;;18.55;12.70;;;14.60;99.90;;;;;;5091081;28;20048;-86
2023/05/06 08:05:57;;;;;;;17.30;12.80;;;14.80;99.90;;;;;;5107730;28;20032;-86
2023/05/06 08:08:26;;;;;;;16.10;12.38;;;15.10;99.90;;;;;;5107603;28;20423;-86
2023/05/06 08:10:58;;;;;;;15.10;12.23;;;15.30;99.90;;;;;;5073971;28;20043;-86
2023/05/06 08:13:24;;;;;;;14.43;10.13;;;15.50;99.90;;;;;;5064896;28;20415;-86
2023/05/06 08:15:50;;;;;;;15.02;11.57;;;15.60;99.90;;;;;;5071353;28;20041;-85
2023/05/06 08:18:16;;;;;;;13.65;10.95;;;15.70;99.90;;;;;;5073303;28;20032;-85
2023/05/06 08:20:42;;;;;;;16.27;11.63;;;15.80;99.90;;;;;;5090350;28;20527;-85
2023/05/06 08:23:07;;;;;;;14.68;10.88;;;16.00;99.90;;;;;;5090425;28;20089;-84
2023/05/06 08:25:33;;;;;;;13.48;10.95;;;16.10;99.90;;;;;;5090560;28;20039;-83
2023/05/06 08:27:58;;;;;;;12.85;10.38;;;16.20;99.90;;;;;;5090501;28;20495;-85
2023/05/06 08:30:24;;;;;;;13.45;10.40;;;16.10;99.90;;;;;;5090219;28;20047;-84
2023/05/06 08:32:49;;;;;;;13.70;9.98;;;16.00;99.90;;;;;;5090397;28;20051;-84
2023/05/06 08:35:15;;;;;;;12.68;10.52;;;15.80;99.90;;;;;;5090270;28;20028;-85
2023/05/06 08:37:40;;;;;;;11.88;9.73;;;15.70;99.90;;;;;;5073319;28;20048;-84
2023/05/06 08:40:20;;;;;;;13.48;10.40;;;15.60;99.90;;;;;;5089896;28;20032;-84
2023/05/06 08:42:46;;;;;;;14.43;10.73;;;15.70;99.90;;;;;;5073585;28;20085;-84
2023/05/06 08:45:13;;;;;;;12.90;10.52;;;15.90;99.90;;;;;;5090348;28;20082;-84
2023/05/06 08:47:39;;;;;;;11.60;9.88;;;16.10;99.90;;;;;;5090658;28;20052;-83
2023/05/06 08:50:05;;;;;;;13.38;10.85;;;16.20;99.90;;;;;;5059485;28;20039;-84
2023/05/06 08:52:31;;;;;;;13.65;10.45;;;16.40;99.90;;;;;;5090921;28;20664;-82
2023/05/06 08:55:00;;;;;;;13.38;10.90;;;16.50;99.90;;;;;;5075006;28;20044;-83
2023/05/06 08:57:29;;;;;;;15.07;10.45;;;16.60;99.90;;;;;;5090763;28;20043;-82
2023/05/06 08:59:55;;;;;;;12.60;10.10;;;16.70;99.90;;;;;;5090835;28;20036;-82
2023/05/06 09:02:21;;;;;;;13.13;9.85;;;16.80;99.90;;;;;;5091163;28;20040;-82
2023/05/06 09:04:47;;;;;;;12.27;9.45;;;16.90;99.90;;;;;;5093677;28;20490;-83
2023/05/06 09:07:13;;;;;;;12.45;10.30;;;16.90;99.90;;;;;;5091680;28;20036;-82
2023/05/06 09:09:38;;;;;;;12.18;9.60;;;16.90;99.90;;;;;;5091252;28;20058;-82
2023/05/06 09:12:09;;;;;;;11.30;9.27;;;17.00;99.90;;;;;;5091506;28;20411;-83
2023/05/06 09:14:35;;;;;;;10.55;8.77;;;17.10;99.90;;;;;;5074919;28;20032;-79
2023/05/06 09:17:01;;;;;;;10.25;8.15;;;17.10;99.90;;;;;;5091092;28;20043;-82
2023/05/06 09:19:27;;;;;;;9.52;8.15;;;17.30;99.90;;;;;;5091234;28;20518;-82
2023/05/06 09:21:52;;;;;;;12.45;8.65;;;17.40;99.90;;;;;;5090800;28;20032;-82
2023/05/06 09:24:18;;;;;;;11.10;8.70;;;17.50;99.90;;;;;;5091122;28;20407;-82
2023/05/06 09:26:45;;;;;;;11.07;8.55;;;17.60;99.90;;;;;;5091205;28;20040;-82
2023/05/06 09:29:10;;;;;;;10.27;8.45;;;17.60;99.90;;;;;;5091933;28;20050;-82
2023/05/06 09:31:42;;;;;;;11.13;9.13;;;17.70;99.90;;;;;;5090888;28;20032;-82
2023/05/06 09:34:08;;;;;;;12.88;9.80;;;17.90;99.90;;;;;;5091232;28;20040;-79
2023/05/06 09:36:33;;;;;;;11.38;9.15;;;17.90;99.90;;;;;;5090331;28;20032;-79
2023/05/06 09:38:59;;;;;;;12.52;9.63;;;17.90;99.90;;;;;;5091027;28;20040;-81
2023/05/06 09:41:24;;;;;;;12.13;9.70;;;17.90;99.90;;;;;;5090517;28;20507;-79
2023/05/06 09:43:55;;;;;;;13.20;9.35;;;18.00;99.90;;;;;;5090919;28;20419;-81
2023/05/06 09:46:21;;;;;;;11.38;9.45;;;18.20;99.90;;;;;;5090318;28;20047;-81
2023/05/06 09:48:50;;;;;;;10.65;9.40;;;18.40;99.90;;;;;;5092297;28;20065;-81
2023/05/06 09:51:16;;;;;;;11.93;9.95;;;18.60;99.90;;;;;;5093030;28;20048;-80
2023/05/06 09:53:43;;;;;;;10.55;9.10;;;18.70;99.90;;;;;;5092224;28;20042;-80
2023/05/06 09:56:10;;;;;;;10.27;8.77;;;18.80;99.90;;;;;;5101898;28;20457;-80
2023/05/06 09:58:37;;;;;;;10.85;8.23;;;19.00;99.90;;;;;;5101324;28;20123;-81
2023/05/06 10:01:06;;;;;;;10.40;7.38;;;19.00;99.90;;;;;;5058125;28;20036;-81
2023/05/06 10:03:32;;;;;;;10.63;8.15;;;18.90;99.90;;;;;;5068910;28;20487;-81
2023/05/06 10:06:03;;;;;;;9.77;7.28;;;18.60;99.90;;;;;;5094557;28;20111;-81
2023/05/06 10:08:31;;;;;;;9.07;6.40;;;18.60;99.90;;;;;;5094372;28;20114;-81
2023/05/06 10:10:59;;;;;;;8.65;6.40;;;18.90;99.90;;;;;;5064607;28;20048;-81
2023/05/06 10:13:25;;;;;;;8.00;6.75;;;19.10;99.90;;;;;;5094070;28;20051;-79
2023/05/06 10:15:51;;;;;;;7.57;6.05;;;19.40;99.90;;;;;;5095633;28;20036;-81
2023/05/06 10:18:19;;;;;;;7.38;5.47;;;19.60;99.90;;;;;;5077326;28;20055;-79
2023/05/06 10:20:45;;;;;;;8.00;5.68;;;19.80;99.90;;;;;;5095698;28;20075;-81
2023/05/06 10:23:30;;;;;;;8.77;6.18;;;19.90;99.90;;;;;;5094094;28;20046;-79
2023/05/06 10:25:56;;;;;;;8.02;5.82;;;19.90;99.90;;;;;;5094187;28;20036;-79
2023/05/06 10:28:22;;;;;;;8.10;6.28;;;19.70;99.90;;;;;;5093441;28;20032;-81
2023/05/06 10:30:49;;;;;;;9.68;6.68;;;19.60;99.90;;;;;;5094039;28;20047;-80
2023/05/06 10:33:16;;;;;;;9.05;6.10;;;19.60;99.90;;;;;;5094326;28;20047;-80
2023/05/06 10:35:52;;;;;;;7.78;5.95;;;19.70;99.90;;;;;;5093945;28;20047;-80
2023/05/06 10:38:32;;;;;;;9.02;6.07;;;19.70;99.90;;;;;;5093399;28;20040;-81
2023/05/06 10:40:59;;;;;;;8.50;6.03;;;19.70;99.90;;;;;;5093334;28;20044;-79
2023/05/06 10:43:27;;;;;;;7.80;5.95;;;19.60;99.90;;;;;;5092916;28;20028;-79
2023/05/06 10:46:13;;;;;;;8.32;6.03;;;19.60;99.90;;;;;;5066119;28;20048;-80
2023/05/06 10:49:05;;;;;;;8.73;6.80;;;19.70;99.90;;;;;;5075022;28;20157;-79
2023/05/06 10:51:35;;;;;;;8.98;6.35;;;19.60;99.90;;;;;;5092871;28;20039;-80
2023/05/06 10:54:08;;;;;;;8.85;6.03;;;19.40;99.90;;;;;;5093069;28;20040;-79
2023/05/06 10:56:58;;;;;;;8.65;6.32;;;19.30;99.90;;;;;;5086515;28;20040;-80
2023/05/06 10:59:25;;;;;;;10.57;6.95;;;19.30;99.90;;;;;;5093102;28;20089;-79
2023/05/06 11:02:06;;;;;;;8.32;6.63;;;19.30;99.90;;;;;;5064781;28;20048;-80
2023/05/06 11:04:32;;;;;;;8.60;6.50;;;19.30;99.90;;;;;;5093001;28;20440;-78
2023/05/06 11:07:12;;;;;;;6.40;5.35;;;19.30;99.90;;;;;;5094461;28;20458;-80
2023/05/06 11:10:02;;;;;;;9.20;6.68;;;19.30;99.90;;;;;;5056278;28;20075;-80
2023/05/06 11:12:44;;;;;;;7.22;6.03;;;19.40;99.90;;;;;;5087766;28;20125;-80
2023/05/06 11:15:35;;;;;;;8.73;6.72;;;19.50;99.90;;;;;;5092651;28;20039;-79
2023/05/06 11:18:20;;;;;;;8.70;6.47;;;19.60;99.90;;;;;;5092287;28;20035;-80
2023/05/06 11:20:46;;;;;;;8.27;6.53;;;19.80;99.90;;;;;;5092490;28;20431;-80
2023/05/06 11:23:11;;;;;;;9.57;7.30;;;20.00;99.90;;;;;;5093048;28;20035;-80
2023/05/06 11:25:41;;;;;;;8.20;6.30;;;20.20;99.90;;;;;;5092846;28;20055;-80
2023/05/06 11:28:11;;;;;;;8.75;6.50;;;20.20;99.90;;;;;;5093746;28;20543;-79
2023/05/06 11:30:40;;;;;;;9.10;7.50;;;20.20;99.90;;;;;;5093376;28;20403;-78
2023/05/06 11:33:07;;;;;;;9.07;7.13;;;20.00;99.90;;;;;;5093174;28;20039;-79
2023/05/06 11:35:36;;;;;;;10.45;7.32;;;19.80;99.90;;;;;;5076337;28;20068;-80
2023/05/06 11:38:03;;;;;;;9.25;7.60;;;19.50;99.90;;;;;;5093133;28;20040;-81
2023/05/06 11:40:29;;;;;;;10.00;8.23;;;19.20;99.90;;;;;;5092364;28;20040;-80
2023/05/06 11:43:07;;;;;;;9.55;8.05;;;18.90;99.90;;;;;;5091969;28;20101;-80
2023/05/06 11:45:44;;;;;;;11.43;8.25;;;18.70;99.90;;;;;;5092249;28;20047;-80
2023/05/06 11:48:14;;;;;;;10.63;7.65;;;18.40;99.90;;;;;;5091906;28;20495;-80
2023/05/06 11:50:49;;;;;;;11.35;8.82;;;18.20;99.90;;;;;;5092340;28;20036;-81
2023/05/06 11:53:20;;;;;;;11.38;8.82;;;18.10;99.90;;;;;;5075976;28;20158;-80
2023/05/06 11:55:46;;;;;;;11.45;9.35;;;17.90;99.90;;;;;;5095585;28;20043;-81
2023/05/06 11:58:17;;;;;;;10.75;9.10;;;17.90;99.90;;;;;;5102522;28;20116;-81
2023/05/06 12:00:52;;;;;;;11.88;9.27;;;17.80;99.90;;;;;;5092208;28;20036;-81
2023/05/06 12:03:20;;;;;;;11.40;9.55;;;17.70;99.90;;;;;;5108538;28;20048;-81
2023/05/06 12:05:47;;;;;;;11.23;8.93;;;17.60;99.90;;;;;;5091513;28;20119;-81
2023/05/06 12:08:14;;;;;;;9.75;7.78;;;17.40;99.90;;;;;;5092193;28;20417;-80
2023/05/06 12:10:39;;;;;;;6.07;3.97;;;17.00;99.90;;;;;;5092031;28;20048;-81
2023/05/06 12:13:05;;;;;;;7.18;3.38;;;16.30;99.90;;;;;;5092077;28;20562;-80
2023/05/06 12:15:33;;;;;;;6.20;4.00;;;15.70;99.90;;;;;;5091176;28;20115;-81
2023/05/06 12:17:59;;;;;;;11.70;5.22;;;15.50;99.90;;;;;;5091291;28;20032;-81
2023/05/06 12:20:25;;;;;;;8.30;5.20;;;15.40;99.90;;;;;;5074562;28;20039;-82
2023/05/06 12:23:11;;;;;;;7.60;5.60;;;15.30;99.90;;;;;;5091783;28;20077;-83
2023/05/06 12:25:37;;;;;;;8.40;5.53;;;15.20;99.90;;;;;;5079861;28;20115;-82
2023/05/06 12:28:22;;;;;;;12.55;6.65;;;15.20;99.90;;;;;;5093120;28;20312;-82
2023/05/06 12:30:48;;;;;;;13.57;7.47;;;15.00;99.90;;;;;;5098477;28;20112;-84
2023/05/06 12:33:13;;;;;;;19.42;8.35;;;14.90;99.90;;;;;;5090378;28;20039;-83
2023/05/06 12:35:40;;;;;;;11.32;8.48;;;14.80;99.90;;;;;;5090590;28;20455;-84
2023/05/06 12:38:09;;;;;;;10.65;8.68;;;14.90;99.90;;;;;;5071609;28;20385;-84